Terminal Aerodrome Forecast
Issued by NWS Twin Cities, MN

Home | Current Version | Previous Version | Graphics & Text | Print | Product List | Glossary On
Versions: 1 2 3 4 5 6 7 8 9 10 11 12 13 14 15 16 17 18 19 20 21 22 23 24 25 26
000
FTUS43 KMPX 270856 AAA
TAFMSP
TAF AMD
KMSP 270856Z 2709/2812 14006KT P6SM SCT080 BKN250
     FM271400 15009KT P6SM SCT050 BKN150
     FM280000 15009KT P6SM SCT040 OVC100
     FM280300 14007KT 5SM -SHRA BKN040 OVC060
     FM280900 12007KT 5SM -RA BR BKN025 OVC040=

USA.gov is the U.S. government's official web portal to all federal, state and local government web resources and services.